Bear Valley Ski Patrol Weather




            Date and Time  Surv  Temp  Temp  Surv  Precip   Total Inter Total  Batt Koala Koala Koala Koala Koala  Batt Bear T Bear T  Bear  Bear  Bear
                           Temp 24 hr 24 hr    RH    Inch   24 hr  Snow  Snow  volt  Temp    RH    WS    WD    WS  volt   Temp     RH    WS    WD    WS
                          Deg F   Min   Max     %    Hour  Precip Stake Stake  Surv Deg F     %   mph  quad   Max Koala  Deg F      %   mph  quad   Max
-------------------------------------------------------------------------------------------------------------------------------------------------------
    "2019-02-21 08:00:00"    10                89    0.00             0   140  13.9    11    89    24    NE    39  12.4      7     87    22    NE    34
    "2019-02-21 09:00:00"    11                89    0.00             0   141  13.9    11    89    24    NE    43  12.9      8     84    26    NE    36
    "2019-02-21 10:00:00"    12                88    0.00             0   140  13.9    11    89    23    NE    40  13.0      8     82    26    NE    36
    "2019-02-21 11:00:00"    13                87    0.00             0   140  13.9    11    89    19    NE    38  13.0      9     76    27   NNE    39
    "2019-02-21 12:00:00"    15                83    0.00             0   140  13.9    12    90    19    NE    36  13.0     10     73    26   NNE    36
    "2019-02-21 13:00:00"    16                80    0.01             0   140  13.8    13    90    17   NNE    31  13.0     10     70    23   NNE    33
    "2019-02-21 14:00:00"    15                78    0.05             0   140  13.8    14    91    16   NNE    31  13.0     10     74    21   NNE    33
    "2019-02-21 15:00:00"    14                73    0.01             0   139  13.8    15    91    16   NNE    32  13.0     11     75    20   NNE    31
    "2019-02-21 16:00:00"    13                74    0.01             0   139  13.8    14    90    19   NNE    34  13.0     10     77    23   NNE    34
    "2019-02-21 17:00:00"    13                76    0.00             0   139  13.8    14    90    15   NNE    30  13.0     10     79    19   NNE    33
    "2019-02-21 18:00:00"    13                82    0.00             0   139  13.8    13    90    16   NNE    35  12.7     10     87    16   NNE    35
    "2019-02-21 19:00:00"    12                84    0.00             1   139  13.8    12    90    18   NNE    37  12.6     10     86    26   NNE    41
    "2019-02-21 20:00:00"    12                86    0.00             1   139  13.9    12    90    21   NNE    45  12.5     10     88    22   NNE    40
    "2019-02-21 21:00:00"    12                86    0.00             0   139  13.9    12    90    25   NNE    49  12.5     10     89    28   NNE    46
    "2019-02-21 22:00:00"    12                88    0.00             0   139  13.9    12    90    19   NNE    40  12.5      9     90    26   NNE    42
    "2019-02-21 23:00:00"    11                88    0.00             1   139  13.9    13    90    17   NNE    36  12.4      9     90    25   NNE    35
    "2019-02-22 00:00:00"    10                86    0.00             1   139  13.9    12    90    21   NNE    37  12.4      8     85    26   NNE    35
    "2019-02-22 01:00:00"     9                86    0.00             1   139  13.9    11    90    21    NE    39  12.4      8     87    22    NE    32
    "2019-02-22 02:00:00"     8                85    0.00             1   138  13.9    10    89    23    NE    42  12.4      7     86    15   NNE    33
    "2019-02-22 03:00:00"     8                81    0.00             1   138  13.9    10    89    14     N    33  12.4      8     70    13    NW    27
    "2019-02-22 04:00:00"     9                72    0.00             1   138  14.0    10    89    14     N    29  12.4      9     57    10   NNW    23
    "2019-02-22 05:00:00"     7                73    0.00             1   138  14.0    10    89    15     N    27  12.4     13     32     8    NE    19
    "2019-02-22 06:00:00"     8                58    0.00             1   138  14.0    10    89    12     N    24  12.3     13     33    12    NE    19
    "2019-02-22 07:00:00"     9     7    16    61    0.00    0.08     1   138  14.0    10    89    12   NNE    20  12.3     12     33     6    NE    13
    "2019-02-22 08:00:00"    11                50    0.00             1   138  14.0    11    89     9   NNE    18  12.5     14     24     3   NNE     8
    "2019-02-22 09:00:00"    15                43    0.00             0   137  14.0    12    89     6     N    11  13.0     16     22     5     N     9
    "2019-02-22 10:00:00"    19                25    0.00             0   138  14.0    13    90     4    NW     8  13.0     18     20     4     N     7
    "2019-02-22 11:00:00"    23                28    0.04             0   137  13.9    14    91     6    NW    10  13.0     19     25     3   NNW     7
    "2019-02-22 12:00:00"    25                26    0.17             0   137  13.9    15    91     5    NW     8  13.1     20     26     3    NW     5
    "2019-02-22 13:00:00"    25                33    0.24             0   137  13.7    17    92     4    NW     8  13.1     20     34     2    NW     5
    "2019-02-22 14:00:00"    24                38    0.24             0   137  13.8    19    93     5   WNW    11  13.2     21     41     2    NW     6
    "2019-02-22 15:00:00"    24                45    0.17             0   137  13.6    21    94     7    NW    11  13.2     21     51     3   NNW     7
    "2019-02-22 16:00:00"    23                60    0.12             0   136  13.6    21    94     7    NW    11  13.2     20     59     2     N     5
    "2019-02-22 17:00:00"    20                69    0.03             0   136  13.6    21    94     7    NW    10  13.2     20     74     4   WNW     8
    "2019-02-22 18:00:00"    17                78    0.00             0   136  13.7    20    94     7    NW     9  12.7     18     79     3   WNW     6
    "2019-02-22 19:00:00"    16                83    0.00             0   136  13.8    19    93     5    NW     7  12.6     17     88     2    NW     5
    "2019-02-22 20:00:00"    16                83    0.00             0   136  13.8    19    93     3     E     5  12.5     18     73     0     E     4
    "2019-02-22 21:00:00"    16                70    0.00             0   136  13.8    19    93     4    SW     8  12.5     19     67     4    SW     6
    "2019-02-22 22:00:00"    16                77    0.00             0   136  13.8    18    93     5     W     8  12.4     17     78     5   WSW     7
    "2019-02-22 23:00:00"    15                84    0.00             0   136  13.8    18    93     3    NW     6  12.4     17     49     3     W     7
    "2019-02-23 00:00:00"    15                61    0.00             0   136  13.9    18    93     2     N     7  12.4     20     15     4   NNW     6
    "2019-02-23 01:00:00"    16                41    0.00             0   135  13.9    16    92     8    NW    14  12.4     20     17     6   NNW     9
    "2019-02-23 02:00:00"    16                50    0.00             0   135  13.9    15    91     6    NW    10  12.4     22     40     6   NNW     8
    "2019-02-23 03:00:00"    18                61    0.00             0   135  13.9    16    92     6    NW     9  12.4     22     52     6   NNW    11
    "2019-02-23 04:00:00"    17                55    0.00             0   135  13.9    17    92     5    NW     9  12.3     21     40     5    NW     8
    "2019-02-23 05:00:00"    15                34    0.00             0   135  13.9    15    91     7   WNW    11  12.3     19     14     5     W     9
    "2019-02-23 06:00:00"    15                55    0.00             0   135  13.9    15    91     6    NW    10  12.3     20     50     7    NW    10
    "2019-02-23 07:00:00"    17    11    25    64    0.00    1.01     0   135  13.9    15    91     7   NNW    12  12.3     19     57     6   NNW    12
    "2019-02-23 08:00:00"    20                67    0.00             0   135  13.9    17    92     6    NW    10  12.5     21     63     4   NNW     7
    "2019-02-23 09:00:00"    26                59    0.00             0   134  13.9    18    93     7    NW    11  13.2     22     63     4   NNW    10
    "2019-02-23 10:00:00"    27                52    0.01             0   134  13.9    20    94     5    NW     9  13.2     23     63     3    NW     7
    "2019-02-23 11:00:00"    28                52    0.00             0   134  13.9    21    94     7   WNW    12  13.2     24     62     3    NW     7
    "2019-02-23 12:00:00"    30                48    0.07             0   134  13.8    22    95     7   WNW    12  13.2     26     59     3    NW     8
    "2019-02-23 13:00:00"    30                51    0.15             0   134  13.8    24    96     7   WNW    16  13.2     26     62     3   WNW    10
    "2019-02-23 14:00:00"    30                57    0.11             0   134  13.8    24    96     8   WNW    15  13.2     26     66     3    NW    10
    "2019-02-23 15:00:00"    28                61    0.02             0   134  13.7    25    96     5   WNW    12  13.2     25     71     2     W     8
    "2019-02-23 16:00:00"    27                65    0.01             0   134  13.6    25    96     3     W    10  13.2     24     81     2   WSW     7